Flight Track Log - Related Links

Times and Time Zones

All times are in EDT time to prevent confusion due to time zone crossing. See the DLA1865 flight status page for this flight to view local times or setup timezone preferences in your user account.

Time Position Orientation Groundspeed Altitude Reporting Facility
EDT Latitude Longitude Course Direction KTS MPH feet Rate Location/Type
Fri 03:37:00 PM 46.1363 9.2663 36° Northeast  Level Estimated
Fri 03:38:00 PM 46.1923 9.3267 37° Northeast  Level Estimated
Fri 03:39:00 PM 46.2483 9.3873 37° Northeast  Level Estimated
Fri 03:40:00 PM 46.3043 9.4479 37° Northeast  Level Estimated
Fri 03:41:00 PM 46.3602 9.5087 37° Northeast  Level Estimated
Fri 03:42:00 PM 46.4161 9.5696 37° Northeast  Level Estimated
Fri 03:43:00 PM 46.4720 9.6306 37° Northeast  Level Estimated
Fri 03:44:00 PM 46.5278 9.6918 37° Northeast  Level Estimated
Fri 03:45:00 PM 46.5836 9.7531 37° Northeast  Level Estimated
Fri 03:46:00 PM 46.6394 9.8145 37° Northeast  Level Estimated
Fri 03:47:00 PM 46.6951 9.8760 37° Northeast  Level Estimated
Fri 03:48:00 PM 46.7509 9.9377 37° Northeast  Level Estimated
Fri 03:49:00 PM 46.8065 9.9995 37° Northeast  Level Estimated
Fri 03:50:00 PM 46.8622 10.0614 37° Northeast  Level Estimated
Fri 03:51:00 PM 46.9178 10.1234 37° Northeast  Level Estimated
Fri 03:52:00 PM 46.9733 10.1856 37° Northeast  Level Estimated
Fri 03:53:00 PM 47.0289 10.2479 37° Northeast  Level Estimated
Fri 03:54:00 PM 47.0844 10.3103 37° Northeast  Level Estimated
Fri 03:55:00 PM 47.1399 10.3729 37° Northeast  Level Estimated
Fri 03:56:00 PM 47.1953 10.4356 38° Northeast  Level Estimated
Fri 03:57:00 PM 47.2507 10.4984 38° Northeast  Level Estimated
Fri 03:58:00 PM 47.3061 10.5614 38° Northeast  Level Estimated
Fri 03:59:00 PM 47.3614 10.6244 38° Northeast  Level Estimated
Fri 04:00:00 PM 47.4167 10.6877 38° Northeast  Level Estimated
Fri 04:01:00 PM 47.4720 10.7510 38° Northeast  Level Estimated
Fri 04:02:00 PM 47.5272 10.8145 38° Northeast  Level Estimated
Fri 04:03:00 PM 47.5886 10.8854 38° Northeast  Level Estimated
Fri 04:04:00 PM 47.6501 10.9564 38° Northeast  Level Estimated
Fri 04:05:00 PM 47.7114 11.0276 38° Northeast  Level Estimated
Fri 04:06:00 PM 47.7728 11.0990 38° Northeast  Level Estimated
Fri 04:07:00 PM 47.8341 11.1705 38° Northeast  Level Estimated
Fri 04:08:00 PM 47.8953 11.2422 38° Northeast  Level Estimated
Fri 04:09:00 PM 47.9565 11.3140 38° Northeast  Level Estimated
Fri 04:10:00 PM 48.0177 11.3861 38° Northeast  Level Estimated
Fri 04:11:00 PM 48.0788 11.4583 38° Northeast  Level Estimated
Fri 04:12:00 PM 48.1398 11.5307 38° Northeast  Level Estimated
Fri 04:13:00 PM 48.2008 11.6032 38° Northeast  Level Estimated
Fri 04:14:00 PM 48.2618 11.6760 38° Northeast  Level Estimated
Fri 04:15:00 PM 48.3227 11.7488 38° Northeast  Level Estimated
Fri 04:16:00 PM 48.3538 11.7861 39° Northeast  Level Estimated
Fri 04:17:00 PM 48.3538 11.7861 318° Northwest  Level Estimated
Fri 04:18:00 PM 48.3538 11.7861 318° Northwest  Level Estimated
Fri 04:19:00 PM 48.3538 11.7861 318° Northwest  Level Estimated
Fri 04:20:00 PM 48.3538 11.7861 318° Northwest  Level Estimated
Fri 04:21:00 PM 48.3538 11.7861 318° Northwest  Level Estimated
Fri 04:22:00 PM 48.3538 11.7861 318° Northwest  Level Estimated
Fri 04:23:00 PM 48.3538 11.7861 318° Northwest  Level Estimated
Fri 04:24:00 PM 48.3538 11.7861 318° Northwest  Level Estimated
Fri 04:25:00 PM 48.3538 11.7861 318° Northwest  Level Estimated
Fri 04:26:00 PM 48.3538 11.7861 318° Northwest  Level Estimated
Fri 04:27:00 PM 48.3538 11.7861 318° Northwest  Level Estimated
Fri 04:28:00 PM 48.3538 11.7861 318° Northwest  Level Estimated

Login

Don't have an account? Register now (free) for customized features, flight alerts, and more!